createdAt,value
2022-10-11T00:02:01.944Z,21.55
2022-10-11T00:04:28.513Z,20.42
2022-10-11T00:06:55.186Z,20.75
2022-10-11T00:09:21.770Z,27.58
2022-10-11T00:11:48.662Z,20.00
2022-10-11T00:14:15.356Z,20.50
2022-10-11T00:16:44.428Z,21.25
2022-10-11T00:19:11.546Z,19.70
2022-10-11T00:21:38.238Z,24.13
2022-10-11T00:24:05.397Z,23.92
2022-10-11T00:26:32.140Z,22.90
2022-10-11T00:28:58.720Z,25.63
2022-10-11T00:31:25.316Z,23.38
2022-10-11T00:33:54.087Z,18.45
2022-10-11T00:36:21.571Z,23.95
2022-10-11T00:38:48.800Z,18.88
2022-10-11T00:41:16.116Z,27.00
2022-10-11T00:43:43.880Z,23.08
2022-10-11T00:46:16.132Z,24.10
2022-10-11T00:48:48.613Z,27.92
2022-10-11T00:51:32.644Z,25.63
2022-10-11T00:54:01.691Z,28.33
2022-10-11T00:56:33.418Z,24.92
2022-10-11T00:59:04.335Z,25.73
2022-10-11T01:01:31.160Z,28.48
2022-10-11T01:03:58.124Z,27.70
2022-10-11T01:18:29.418Z,17.15
2022-10-11T01:21:25.902Z,16.98
2022-10-11T01:23:58.299Z,16.05
2022-10-11T01:27:05.390Z,20.00
2022-10-11T01:29:57.536Z,16.75
2022-10-11T01:32:38.166Z,15.35
2022-10-11T01:35:20.641Z,13.07
2022-10-11T01:38:03.047Z,16.05
2022-10-11T01:40:36.146Z,18.17
2022-10-11T01:43:04.763Z,16.63
2022-10-11T01:45:33.652Z,16.60
2022-10-11T01:48:07.765Z,18.02
2022-10-11T01:50:37.005Z,17.55
2022-10-11T01:53:23.766Z,18.00
2022-10-11T01:55:55.406Z,15.27
2022-10-11T01:58:25.099Z,16.95
2022-10-11T02:01:13.235Z,17.80
2022-10-11T02:03:54.712Z,17.63
2022-10-11T02:06:59.823Z,20.65
2022-10-11T02:10:01.443Z,17.83
2022-10-11T02:12:37.638Z,18.38
2022-10-11T02:15:09.359Z,21.30
2022-10-11T02:17:40.859Z,21.00
2022-10-11T02:20:13.494Z,19.45
2022-10-11T02:22:45.939Z,20.60
2022-10-11T02:25:19.388Z,20.10
2022-10-11T02:27:48.880Z,18.23
2022-10-11T02:30:16.233Z,22.02
2022-10-11T02:32:46.592Z,23.33
2022-10-11T02:35:14.054Z,18.45
2022-10-11T02:37:46.439Z,18.40
2022-10-11T02:40:31.093Z,24.90
2022-10-11T02:43:18.024Z,25.58
2022-10-11T02:45:49.868Z,19.05
2022-10-11T02:48:17.011Z,19.88
2022-10-11T02:50:43.922Z,20.33
2022-10-11T02:53:10.805Z,24.35
2022-10-11T02:55:37.613Z,22.40
2022-10-11T02:58:04.406Z,17.30
2022-10-11T03:00:31.150Z,18.83
2022-10-11T03:02:57.731Z,20.42
2022-10-11T03:05:24.236Z,22.35
2022-10-11T03:07:50.824Z,20.55
2022-10-11T03:10:17.451Z,22.55
2022-10-11T03:12:44.095Z,17.02
2022-10-11T03:15:10.814Z,20.85
2022-10-11T03:17:37.687Z,18.23
2022-10-11T03:20:06.130Z,19.17
2022-10-11T03:22:32.745Z,17.73
2022-10-11T03:25:03.712Z,18.20
2022-10-11T03:27:31.188Z,23.30
2022-10-11T03:29:57.895Z,19.73
2022-10-11T03:32:24.630Z,19.70
2022-10-11T03:34:51.217Z,18.77
2022-10-11T03:37:18.325Z,21.65
2022-10-11T03:39:45.887Z,27.95
2022-10-11T03:42:13.553Z,17.63
2022-10-11T03:44:41.709Z,22.73
2022-10-11T03:47:08.884Z,22.90
2022-10-11T03:49:37.706Z,22.27
2022-10-11T03:52:08.019Z,21.58
2022-10-11T03:54:34.592Z,17.27
2022-10-11T03:57:01.127Z,20.65
2022-10-11T03:59:27.671Z,20.55
2022-10-11T04:01:54.372Z,17.30
2022-10-11T04:04:20.980Z,20.95
2022-10-11T04:06:47.709Z,19.38
2022-10-11T04:09:14.222Z,19.85
2022-10-11T04:11:40.807Z,18.33
2022-10-11T04:14:07.378Z,22.67
2022-10-11T04:16:35.275Z,17.33
2022-10-11T04:19:01.803Z,18.08
2022-10-11T04:21:28.445Z,17.02
2022-10-11T04:23:55.086Z,18.48
2022-10-11T04:26:21.629Z,16.92
2022-10-11T04:28:48.315Z,25.83
2022-10-11T04:31:15.239Z,17.63
2022-10-11T04:33:41.771Z,14.02
2022-10-11T04:36:08.780Z,19.73
2022-10-11T04:38:35.752Z,18.05
2022-10-11T04:41:13.706Z,19.13
2022-10-11T04:43:40.236Z,15.60
2022-10-11T04:46:07.685Z,18.90
2022-10-11T04:48:34.855Z,18.95
2022-10-11T04:51:01.554Z,21.63
2022-10-11T04:53:28.228Z,17.10
2022-10-11T04:56:09.138Z,20.52
2022-10-11T04:58:36.319Z,19.85
2022-10-11T05:01:04.261Z,18.42
2022-10-11T05:03:30.937Z,14.32
2022-10-11T05:05:59.213Z,20.42
2022-10-11T05:08:28.897Z,16.67
2022-10-11T05:11:00.992Z,17.80
2022-10-11T05:13:28.870Z,15.85
2022-10-11T05:15:55.988Z,15.65
2022-10-11T05:18:22.907Z,17.42
2022-10-11T05:20:49.852Z,18.40
2022-10-11T05:23:16.458Z,17.55
2022-10-11T05:25:43.516Z,27.23
2022-10-11T05:28:10.299Z,25.88
2022-10-11T05:30:36.923Z,16.23
2022-10-11T05:33:03.724Z,25.25
2022-10-11T05:35:30.410Z,20.90
2022-10-11T05:37:56.996Z,18.00
2022-10-11T05:40:23.535Z,16.90
2022-10-11T05:42:50.060Z,24.70
2022-10-11T05:45:16.798Z,18.60
2022-10-11T05:47:43.322Z,13.63
2022-10-11T05:50:10.144Z,18.42
2022-10-11T05:52:36.682Z,17.52
2022-10-11T05:55:04.157Z,21.43
2022-10-11T05:57:30.724Z,21.38
2022-10-11T05:59:57.542Z,18.05
2022-10-11T06:02:24.220Z,21.88
2022-10-11T06:04:51.553Z,16.70
2022-10-11T06:07:18.282Z,21.07
2022-10-11T06:09:44.892Z,22.67
2022-10-11T06:12:11.542Z,22.50
2022-10-11T06:14:38.121Z,17.90
2022-10-11T06:17:04.675Z,15.93
2022-10-11T06:19:31.487Z,17.47
2022-10-11T06:21:57.984Z,13.73
2022-10-11T06:24:24.534Z,15.88
2022-10-11T06:26:51.103Z,20.40
2022-10-11T06:29:18.022Z,19.08
2022-10-11T06:31:44.862Z,20.40
2022-10-11T06:34:11.450Z,17.95
2022-10-11T06:36:37.992Z,14.77
2022-10-11T06:39:04.620Z,24.00
2022-10-11T06:41:31.299Z,16.97
2022-10-11T06:43:58.023Z,20.35
2022-10-11T06:46:27.283Z,15.40
2022-10-11T06:48:54.802Z,25.02
2022-10-11T06:51:22.306Z,21.50
2022-10-11T06:53:59.732Z,17.20
2022-10-11T06:56:27.463Z,18.65
2022-10-11T06:58:55.018Z,19.63
2022-10-11T07:01:23.776Z,19.63
2022-10-11T07:03:52.666Z,17.30
2022-10-11T07:06:25.291Z,16.85
2022-10-11T07:08:52.433Z,18.17
2022-10-11T07:11:21.688Z,22.30
2022-10-11T07:13:54.260Z,21.05
2022-10-11T07:16:21.886Z,17.88
2022-10-11T07:18:58.731Z,15.48
2022-10-11T07:21:27.545Z,14.60
2022-10-11T07:23:54.082Z,15.55
2022-10-11T07:26:20.815Z,17.75
2022-10-11T07:28:47.882Z,17.02
2022-10-11T07:31:17.864Z,15.30
2022-10-11T07:33:45.145Z,15.63
2022-10-11T07:36:13.140Z,14.90
2022-10-11T07:38:44.321Z,15.23
2022-10-11T07:41:11.475Z,11.98
2022-10-11T07:43:38.811Z,14.90
2022-10-11T07:46:06.281Z,16.15
2022-10-11T07:48:34.877Z,14.48
2022-10-11T07:51:16.177Z,12.70
2022-10-11T07:53:45.485Z,17.33
2022-10-11T07:56:14.399Z,19.70
2022-10-11T07:58:42.187Z,12.95
2022-10-11T08:01:10.802Z,18.73
2022-10-11T08:03:38.220Z,12.52
2022-10-11T08:06:07.712Z,16.00
2022-10-11T08:08:35.895Z,14.30
2022-10-11T08:11:02.491Z,19.25
2022-10-11T08:13:29.047Z,18.92
2022-10-11T08:15:55.794Z,15.38
2022-10-11T08:18:22.533Z,12.10
2022-10-11T08:20:49.443Z,19.00
2022-10-11T08:23:17.589Z,19.42
2022-10-11T08:25:46.721Z,10.93
2022-10-11T08:28:18.027Z,18.48
2022-10-11T08:30:52.783Z,15.98
2022-10-11T08:33:21.929Z,18.13
2022-10-11T08:35:50.566Z,13.18
2022-10-11T08:38:18.437Z,12.93
2022-10-11T08:40:57.033Z,12.43
2022-10-11T08:43:52.881Z,10.63
2022-10-11T08:46:27.349Z,9.57
2022-10-11T08:48:54.976Z,11.82
2022-10-11T08:51:30.665Z,13.77
2022-10-11T08:53:57.194Z,7.47
2022-10-11T08:56:25.820Z,14.60
2022-10-11T08:59:02.126Z,12.57
2022-10-11T09:01:29.382Z,12.95
2022-10-11T09:04:00.036Z,12.73
2022-10-11T09:06:55.150Z,11.05
2022-10-11T09:09:27.783Z,9.32
2022-10-11T09:12:30.870Z,14.43
2022-10-11T09:15:10.728Z,11.32
2022-10-11T09:17:47.586Z,7.50
2022-10-11T09:20:26.419Z,12.07
2022-10-11T09:23:11.129Z,13.63
2022-10-11T09:25:54.661Z,11.98
2022-10-11T09:28:44.528Z,8.57
2022-10-11T09:31:11.747Z,10.85
2022-10-11T09:33:49.038Z,10.63
2022-10-11T09:36:37.501Z,10.57
2022-10-11T09:39:25.286Z,7.68
2022-10-11T09:42:07.866Z,11.90
2022-10-11T09:44:39.021Z,11.38
2022-10-11T09:47:07.451Z,9.10
2022-10-11T09:49:42.728Z,7.72
2022-10-11T09:52:16.691Z,10.82
2022-10-11T09:54:58.261Z,10.15
2022-10-11T09:57:27.895Z,6.82
2022-10-11T10:00:01.871Z,6.70
2022-10-11T10:02:30.051Z,9.40
2022-10-11T10:04:59.205Z,8.50
2022-10-11T10:07:26.777Z,7.70
2022-10-11T10:09:53.819Z,10.10
2022-10-11T10:12:23.899Z,6.13
2022-10-11T10:15:19.851Z,7.38
2022-10-11T10:17:51.370Z,6.22
2022-10-11T10:20:23.122Z,10.07
2022-10-11T10:22:49.920Z,6.47
2022-10-11T10:25:43.267Z,10.07
2022-10-11T10:28:27.577Z,10.50
2022-10-11T10:30:57.572Z,7.80
2022-10-11T10:33:27.402Z,9.68
2022-10-11T10:36:03.374Z,13.10
2022-10-11T10:38:37.532Z,8.50
2022-10-11T10:41:13.895Z,11.10
2022-10-11T10:43:43.132Z,7.50
2022-10-11T10:46:18.083Z,8.25
2022-10-11T10:52:03.127Z,6.55
2022-10-11T10:54:40.362Z,9.85
2022-10-11T10:57:31.291Z,8.65
2022-10-11T11:00:15.060Z,9.10
2022-10-11T11:02:44.505Z,11.32
2022-10-11T11:05:37.018Z,8.65
2022-10-11T11:08:32.732Z,8.55
2022-10-11T11:11:39.746Z,6.78
2022-10-11T11:14:26.409Z,5.45
2022-10-11T11:17:02.084Z,8.07
2022-10-11T11:19:56.668Z,8.70
2022-10-11T11:22:30.383Z,6.05
2022-10-11T11:25:07.956Z,5.40
2022-10-11T11:27:46.990Z,6.80
2022-10-11T11:30:20.444Z,7.47
2022-10-11T11:32:57.894Z,8.63
2022-10-11T11:35:38.237Z,6.43
2022-10-11T11:38:16.643Z,5.60
2022-10-11T11:40:49.236Z,6.15
2022-10-11T11:43:18.800Z,4.75
2022-10-11T11:45:51.611Z,6.50
2022-10-11T11:48:20.969Z,6.65
2022-10-11T11:51:01.858Z,6.95
2022-10-11T11:53:47.643Z,8.80
2022-10-11T11:56:41.989Z,6.45
2022-10-11T11:59:27.758Z,6.68
2022-10-11T12:02:12.681Z,7.85
2022-10-11T12:04:43.951Z,8.80
2022-10-11T12:07:17.858Z,7.65
2022-10-11T12:09:50.689Z,10.38
2022-10-11T12:12:38.214Z,9.50
2022-10-11T12:15:26.094Z,4.22
2022-10-11T12:17:58.439Z,5.78
2022-10-11T12:20:28.928Z,8.10
2022-10-11T12:23:01.449Z,6.00
2022-10-11T12:25:28.719Z,4.82
2022-10-11T12:28:01.339Z,4.70
2022-10-11T12:30:50.891Z,7.30
2022-10-11T12:33:46.210Z,3.45
2022-10-11T12:36:39.539Z,4.47
2022-10-11T12:39:21.233Z,5.03
2022-10-11T12:41:47.815Z,4.63
2022-10-11T12:44:29.537Z,6.90
2022-10-11T12:46:59.357Z,5.03
2022-10-11T12:49:37.927Z,4.72
2022-10-11T12:52:16.426Z,2.90
2022-10-11T12:55:17.805Z,3.33
2022-10-11T12:58:08.755Z,5.68
2022-10-11T13:01:04.597Z,5.40
2022-10-11T13:03:36.455Z,6.85
2022-10-11T13:06:27.619Z,5.65
2022-10-11T13:09:02.445Z,3.67
2022-10-11T13:11:46.243Z,4.07
2022-10-11T13:14:37.662Z,4.50
2022-10-11T13:17:08.374Z,4.60
2022-10-11T13:19:36.738Z,7.63
2022-10-11T13:22:07.034Z,4.88
2022-10-11T13:24:39.683Z,7.30
2022-10-11T13:27:08.007Z,3.88
2022-10-11T13:29:45.521Z,4.18
2022-10-11T13:32:19.638Z,4.53
2022-10-11T13:34:49.418Z,2.88
2022-10-11T13:37:19.327Z,4.35
2022-10-11T13:39:47.171Z,4.90
2022-10-11T13:42:16.834Z,3.50
2022-10-11T13:44:45.417Z,2.95
2022-10-11T13:47:18.426Z,5.95
2022-10-11T13:49:47.762Z,5.20
2022-10-11T13:52:23.366Z,4.57
2022-10-11T13:54:55.682Z,4.07
2022-10-11T13:57:32.778Z,3.05
2022-10-11T14:00:02.458Z,4.90
2022-10-11T14:02:29.910Z,3.53
2022-10-11T14:04:56.530Z,3.33
2022-10-11T14:07:31.863Z,3.20
2022-10-11T14:09:58.677Z,5.20
2022-10-11T14:12:31.921Z,3.53
2022-10-11T14:15:20.990Z,4.07
2022-10-11T14:17:47.688Z,4.68
2022-10-11T14:20:29.512Z,7.82
2022-10-11T14:22:59.193Z,4.53
2022-10-11T14:25:26.060Z,6.15
2022-10-11T14:27:54.432Z,6.03
2022-10-11T14:30:26.037Z,6.15
2022-10-11T14:32:56.543Z,6.38
2022-10-11T14:35:28.763Z,3.88
2022-10-11T14:37:55.406Z,6.82
2022-10-11T14:40:27.584Z,3.45
2022-10-11T14:42:54.250Z,5.13
2022-10-11T14:45:21.512Z,4.80
2022-10-11T14:47:49.022Z,5.28
2022-10-11T14:50:51.797Z,5.05
2022-10-11T14:53:18.776Z,5.65
2022-10-11T14:55:45.522Z,5.13
2022-10-11T14:58:14.220Z,3.03
2022-10-11T15:00:40.949Z,4.57
2022-10-11T15:03:08.384Z,5.82
2022-10-11T15:05:36.391Z,7.32
2022-10-11T15:08:04.571Z,6.80
2022-10-11T15:10:37.198Z,4.55
2022-10-11T15:13:05.071Z,4.53
2022-10-11T15:15:35.347Z,5.47
2022-10-11T15:18:04.710Z,5.65
2022-10-11T15:20:39.738Z,4.68
2022-10-11T15:23:09.479Z,8.25
2022-10-11T15:25:37.776Z,5.40
2022-10-11T15:28:04.627Z,3.60
2022-10-11T15:30:41.415Z,3.50
2022-10-11T15:33:09.076Z,5.43
2022-10-11T15:35:35.971Z,7.05
2022-10-11T15:38:02.558Z,6.32
2022-10-11T15:40:35.533Z,5.57
2022-10-11T15:43:02.919Z,5.93
2022-10-11T15:45:30.474Z,4.57
2022-10-11T15:47:58.136Z,4.50
2022-10-11T15:50:34.576Z,7.20
2022-10-11T15:53:02.819Z,6.82
2022-10-11T15:55:30.074Z,4.75
2022-10-11T15:57:57.243Z,6.53
2022-10-11T16:00:25.517Z,5.93
2022-10-11T16:02:53.298Z,5.32
2022-10-11T16:05:24.990Z,6.28
2022-10-11T16:07:52.863Z,5.35
2022-10-11T16:10:20.544Z,7.43
2022-10-11T16:12:47.440Z,4.82
2022-10-11T16:15:15.847Z,4.88
2022-10-11T16:17:42.382Z,5.07
2022-10-11T16:20:09.295Z,3.90
2022-10-11T16:22:36.099Z,3.05
2022-10-11T16:25:04.558Z,6.70
2022-10-11T16:27:31.708Z,5.55
2022-10-11T16:29:58.758Z,6.38
2022-10-11T16:32:25.532Z,5.28
2022-10-11T16:34:52.083Z,7.15
2022-10-11T16:37:19.022Z,6.90
2022-10-11T16:39:48.975Z,8.63
2022-10-11T16:42:15.660Z,5.85
2022-10-11T16:44:42.225Z,8.32
2022-10-11T16:47:08.900Z,4.32
2022-10-11T16:49:35.742Z,6.28
2022-10-11T16:52:04.124Z,5.30
2022-10-11T16:54:31.671Z,5.95
2022-10-11T16:56:59.511Z,5.65
2022-10-11T16:59:26.371Z,5.72
2022-10-11T17:01:52.930Z,7.22
2022-10-11T17:04:19.563Z,6.15
2022-10-11T17:06:46.320Z,7.72
2022-10-11T17:09:13.169Z,7.68
2022-10-11T17:11:40.794Z,8.00
2022-10-11T17:14:07.739Z,5.03
2022-10-11T17:16:35.258Z,8.80
2022-10-11T17:19:02.813Z,8.82
2022-10-11T17:21:29.738Z,8.35
2022-10-11T17:23:56.346Z,7.28
2022-10-11T17:26:26.355Z,8.32
2022-10-11T17:28:57.647Z,9.40
2022-10-11T17:31:24.590Z,8.57
2022-10-11T17:33:51.401Z,5.78
2022-10-11T17:36:22.510Z,8.10
2022-10-11T17:38:50.634Z,7.22
2022-10-11T17:41:18.100Z,9.25
2022-10-11T17:43:44.770Z,9.65
2022-10-11T17:46:13.670Z,8.68
2022-10-11T17:48:40.932Z,9.70
2022-10-11T17:51:12.879Z,7.30
2022-10-11T17:53:40.249Z,7.15
2022-10-11T17:56:12.294Z,9.45
2022-10-11T17:58:39.404Z,9.52
2022-10-11T18:01:09.519Z,9.82
2022-10-11T18:03:36.687Z,13.07
2022-10-11T18:06:05.703Z,9.13
2022-10-11T18:08:39.784Z,8.32
2022-10-11T18:11:12.562Z,10.85
2022-10-11T18:13:42.586Z,10.63
2022-10-11T18:16:10.873Z,8.65
2022-10-11T18:18:38.010Z,9.30
2022-10-11T18:21:04.629Z,7.32
2022-10-11T18:23:31.467Z,10.05
2022-10-11T18:25:58.329Z,7.07
2022-10-11T18:28:25.271Z,6.13
2022-10-11T18:30:53.212Z,8.63
2022-10-11T18:33:19.875Z,11.40
2022-10-11T18:35:46.602Z,6.30
2022-10-11T18:38:13.193Z,9.05
2022-10-11T18:40:44.711Z,7.70
2022-10-11T18:43:13.668Z,10.35
2022-10-11T18:45:40.205Z,9.00
2022-10-11T18:48:08.617Z,11.40
2022-10-11T18:50:35.664Z,5.90
2022-10-11T18:53:02.618Z,7.80
2022-10-11T18:55:29.223Z,8.73
2022-10-11T18:57:56.221Z,7.93
2022-10-11T19:00:40.245Z,7.82
2022-10-11T19:03:07.966Z,11.73
2022-10-11T19:05:34.469Z,5.55
2022-10-11T19:08:01.067Z,9.38
2022-10-11T19:10:28.156Z,8.25
2022-10-11T19:12:54.711Z,6.95
2022-10-11T19:15:25.236Z,4.95
2022-10-11T19:17:54.577Z,10.15
2022-10-11T19:20:21.125Z,6.78
2022-10-11T19:22:47.782Z,7.68
2022-10-11T19:25:14.513Z,8.43
2022-10-11T19:27:41.087Z,8.88
2022-10-11T19:30:08.396Z,7.57
2022-10-11T19:32:34.909Z,8.35
2022-10-11T19:35:01.560Z,9.20
2022-10-11T19:37:28.340Z,5.68
2022-10-11T19:39:54.946Z,11.23
2022-10-11T19:42:21.514Z,4.00
2022-10-11T19:44:48.135Z,9.23
2022-10-11T19:47:16.115Z,9.50
2022-10-11T19:49:42.680Z,8.73
2022-10-11T19:52:09.577Z,7.07
2022-10-11T19:54:36.184Z,10.65
2022-10-11T19:57:02.825Z,13.77
2022-10-11T19:59:29.422Z,8.05
2022-10-11T20:01:55.943Z,7.45
2022-10-11T20:04:50.426Z,10.32
2022-10-11T20:07:09.984Z,10.90
2022-10-11T20:09:36.779Z,12.95
2022-10-11T20:12:03.340Z,8.43
2022-10-11T20:14:29.951Z,8.90
2022-10-11T20:16:56.626Z,9.60
2022-10-11T20:19:30.396Z,9.90
2022-10-11T20:21:57.734Z,13.02
2022-10-11T20:24:24.501Z,10.43
2022-10-11T20:26:51.097Z,7.20
2022-10-11T20:29:17.842Z,7.30
2022-10-11T20:31:44.432Z,10.02
2022-10-11T20:34:12.389Z,10.23
2022-10-11T20:36:39.349Z,13.45
2022-10-11T20:39:06.484Z,11.75
2022-10-11T20:41:37.168Z,5.85
2022-10-11T20:44:05.175Z,8.95
2022-10-11T20:46:34.782Z,9.50
2022-10-11T20:49:04.043Z,10.43
2022-10-11T20:51:32.242Z,10.07
2022-10-11T20:54:00.527Z,14.13
2022-10-11T20:56:27.170Z,7.07
2022-10-11T20:58:56.182Z,7.28
2022-10-11T21:01:26.345Z,13.73
2022-10-11T21:03:53.362Z,9.95
2022-10-11T21:06:20.567Z,10.23
2022-10-11T21:08:47.246Z,16.02
2022-10-11T21:11:13.803Z,9.55
2022-10-11T21:13:40.918Z,10.05
2022-10-11T21:16:16.563Z,15.02
2022-10-11T21:18:43.210Z,9.77
2022-10-11T21:21:14.160Z,9.00
2022-10-11T21:23:41.702Z,10.40
2022-10-11T21:26:12.044Z,10.80
2022-10-11T21:28:39.927Z,12.90
2022-10-11T21:31:15.457Z,11.30
2022-10-11T21:33:43.360Z,11.93
2022-10-11T21:36:16.066Z,13.23
2022-10-11T21:38:43.458Z,11.40
2022-10-11T21:41:15.718Z,17.83
2022-10-11T21:43:42.330Z,10.98
2022-10-11T21:46:12.832Z,12.25
2022-10-11T21:48:40.088Z,11.80
2022-10-11T21:51:07.132Z,11.18
2022-10-11T21:53:33.952Z,14.52
2022-10-11T21:56:01.049Z,11.50
2022-10-11T21:58:28.257Z,12.85
2022-10-11T22:00:55.036Z,14.77
2022-10-11T22:03:21.962Z,11.40
2022-10-11T22:05:48.772Z,11.43
2022-10-11T22:08:16.129Z,10.15
2022-10-11T22:10:43.811Z,16.77
2022-10-11T22:13:10.967Z,10.63
2022-10-11T22:15:37.804Z,10.40
2022-10-11T22:18:04.563Z,10.68
2022-10-11T22:20:33.149Z,13.70
2022-10-11T22:22:59.882Z,12.55
2022-10-11T22:25:26.704Z,12.00
2022-10-11T22:27:53.254Z,14.60
2022-10-11T22:30:19.804Z,8.43
2022-10-11T22:32:46.598Z,13.82
2022-10-11T22:35:13.119Z,9.95
2022-10-11T22:37:39.713Z,9.88
2022-10-11T22:40:06.863Z,14.02
2022-10-11T22:42:33.451Z,11.25
2022-10-11T22:45:00.156Z,9.57
2022-10-11T22:47:26.869Z,9.98
2022-10-11T22:49:53.523Z,11.82
2022-10-11T22:52:20.128Z,9.85
2022-10-11T22:54:46.772Z,11.50
2022-10-11T22:57:13.319Z,7.07
2022-10-11T22:59:39.898Z,11.60
2022-10-11T23:02:06.606Z,13.98
2022-10-11T23:04:33.234Z,15.57
2022-10-11T23:07:04.649Z,13.02
2022-10-11T23:09:31.837Z,13.10
2022-10-11T23:11:59.496Z,7.85
2022-10-11T23:14:26.040Z,12.32
2022-10-11T23:16:53.607Z,10.48
2022-10-11T23:19:20.610Z,15.48
2022-10-11T23:21:47.234Z,12.27
2022-10-11T23:24:13.836Z,19.50
2022-10-11T23:26:40.560Z,9.13
2022-10-11T23:29:07.134Z,10.98
2022-10-11T23:31:33.776Z,10.57
2022-10-11T23:34:00.364Z,18.27
2022-10-11T23:36:27.006Z,11.65
2022-10-11T23:38:59.390Z,15.05
2022-10-11T23:41:28.471Z,13.10
2022-10-11T23:43:55.070Z,11.00
2022-10-11T23:46:22.155Z,11.93
2022-10-11T23:48:48.849Z,11.95
2022-10-11T23:51:15.637Z,13.07
2022-10-11T23:53:42.232Z,10.30
2022-10-11T23:56:10.655Z,12.55
2022-10-11T23:58:37.506Z,12.17
